Time;durP1;ratioP1;P1;durP2;ratioP2;P2;SDS_P1;SDS_P2;PMS_P1;PMS_P2;Temp;Humidity;BMP_temperature;BMP_pressure;BME280_temperature;BME280_humidity;BME280_pressure;Samples;Min_cycle;Max_cycle;Signal;HPM_P1;HPM_P2
2020/12/06 00:00:23;;;;;;;;;;;;;;;10.16;48.28;100111.38;3744874;31;96720;-84
2020/12/06 00:02:49;;;;;;;;;;;;;;;8.82;51.99;100102.84;3799909;31;96981;-85
2020/12/06 00:05:16;;;;;;;;;;;;;;;8.94;52.15;100089.19;3817825;31;99871;-82
2020/12/06 00:07:42;;;;;;;;;;;;;;;9.07;52.15;100090.44;3754620;31;99302;-82
2020/12/06 00:10:09;;;;;;;;;;;;;;;9.50;50.70;100088.72;3782835;31;96811;-83
2020/12/06 00:12:35;;;;;;;;;;;;;;;9.82;50.00;100080.28;3919630;31;96776;-84
2020/12/06 00:15:00;;;;;;;;;;;;;;;9.93;49.24;100074.53;3906225;31;98954;-82
2020/12/06 00:17:26;;;;;;;;;;;;;;;9.91;49.65;100071.13;3907766;31;98283;-84
2020/12/06 00:19:52;;;;;;;;;;;;;;;9.78;49.86;100070.78;3816105;31;96501;-82
2020/12/06 00:22:19;;;;;;;;;;;;;;;9.64;50.23;100069.66;3792915;31;96593;-82
2020/12/06 00:24:45;;;;;;;;;;;;;;;9.95;49.78;100057.72;3805032;31;101464;-82
2020/12/06 00:27:11;;;;;;;;;;;;;;;10.00;49.25;100058.38;3758293;31;101099;-83
2020/12/06 00:29:37;;;;;;;;;;;;;;;9.74;50.10;100061.28;3744719;31;96593;-83
2020/12/06 00:32:02;;;;;;;;;;;;;;;9.71;50.84;100068.50;3793614;31;96836;-84
2020/12/06 00:34:28;;;;;;;;;;;;;;;9.62;50.83;100048.63;3744368;31;101071;-86
2020/12/06 00:36:54;;;;;;;;;;;;;;;9.89;50.38;100044.81;3738986;31;101034;-82
2020/12/06 00:39:21;;;;;;;;;;;;;;;10.25;49.37;100044.97;3752782;31;98387;-84
2020/12/06 00:41:46;;;;;;;;;;;;;;;10.05;50.11;100030.91;3677628;31;96770;-84
2020/12/06 00:44:13;;;;;;;;;;;;;;;9.84;50.78;100016.91;3768272;31;99966;-82
2020/12/06 00:46:38;;;;;;;;;;;;;;;9.52;52.07;100018.28;3759037;31;99172;-84
2020/12/06 00:49:04;;;;;;;;;;;;;;;9.85;51.75;100030.00;3736110;31;96498;-82
2020/12/06 00:51:30;;;;;;;;;;;;;;;9.88;51.63;100014.06;3790539;31;96517;-83
2020/12/06 00:53:56;;;;;;;;;;;;;;;9.41;53.07;100015.25;3813367;31;98802;-84
2020/12/06 00:56:23;;;;;;;;;;;;;;;9.45;53.28;100004.50;3765462;31;100256;-82
2020/12/06 00:58:52;;;;;;;;;;;;;;;9.26;53.86;100005.31;3720740;31;96289;-83
2020/12/06 01:01:19;;;;;;;;;;;;;;;9.31;54.14;100001.59;3732258;31;96819;-82
2020/12/06 01:03:45;;;;;;;;;;;;;;;9.54;53.20;100003.25;3738620;31;99090;-81
2020/12/06 01:06:13;;;;;;;;;;;;;;;9.73;52.82;100006.81;3753707;31;101489;-82
2020/12/06 01:08:39;;;;;;;;;;;;;;;10.09;52.09;100003.47;3731971;31;96288;-79
2020/12/06 01:13:35;;;;;;;;;;;;;;;10.22;51.70;100015.22;3738013;31;97707;-81
2020/12/06 01:16:01;;;;;;;;;;;;;;;10.29;51.53;100025.44;3731642;31;98175;-80
2020/12/06 01:18:27;;;;;;;;;;;;;;;10.32;51.57;100013.84;3781053;31;96543;-82
2020/12/06 01:20:53;;;;;;;;;;;;;;;10.11;52.50;100002.47;3732610;31;96621;-83
2020/12/06 01:23:19;;;;;;;;;;;;;;;9.60;54.95;100000.34;3783957;31;98204;-82
2020/12/06 01:25:45;;;;;;;;;;;;;;;9.71;55.24;99997.25;3670342;31;99500;-82
2020/12/06 01:28:14;;;;;;;;;;;;;;;9.62;55.37;99993.22;3744748;31;96499;-82
2020/12/06 01:33:13;;;;;;;;;;;;;;;10.19;54.39;99991.59;4054303;26;100248;-82
2020/12/06 01:35:40;;;;;;;;;;;;;;;9.97;55.09;99976.72;3829345;31;98168;-81
2020/12/06 01:38:06;;;;;;;;;;;;;;;10.05;54.93;99970.19;3756165;31;96471;-82
2020/12/06 01:40:32;;;;;;;;;;;;;;;10.24;54.94;99961.41;3756451;31;96481;-84
2020/12/06 01:42:58;;;;;;;;;;;;;;;10.38;54.51;99948.41;3747184;31;101846;-82
2020/12/06 01:45:24;;;;;;;;;;;;;;;10.45;54.85;99945.47;3755348;31;102018;-83
2020/12/06 01:47:49;;;;;;;;;;;;;;;10.70;54.13;99953.94;3692272;31;96735;-84
2020/12/06 01:50:15;;;;;;;;;;;;;;;10.74;53.91;99948.44;3773638;31;96759;-83
2020/12/06 01:52:42;;;;;;;;;;;;;;;10.45;55.53;99953.41;3741975;31;101770;-83
2020/12/06 01:55:11;;;;;;;;;;;;;;;10.77;54.61;99948.28;3789182;31;97874;-84
2020/12/06 01:57:37;;;;;;;;;;;;;;;10.07;56.21;99932.25;3732428;31;96647;-83
2020/12/06 02:00:04;;;;;;;;;;;;;;;9.78;57.27;99936.22;3814332;31;96732;-83
2020/12/06 02:02:30;;;;;;;;;;;;;;;10.17;56.65;99936.25;3787360;31;99001;-83
2020/12/06 02:04:56;;;;;;;;;;;;;;;10.51;55.30;99934.63;3712710;31;100094;-83
2020/12/06 02:07:22;;;;;;;;;;;;;;;10.77;54.62;99929.78;3764839;31;96688;-83
2020/12/06 02:09:49;;;;;;;;;;;;;;;10.72;54.93;99923.00;3841149;31;96707;-83
2020/12/06 02:12:15;;;;;;;;;;;;;;;10.71;54.68;99922.16;3760809;31;100241;-83
2020/12/06 02:14:41;;;;;;;;;;;;;;;10.69;54.74;99916.13;3760954;31;100058;-83
2020/12/06 02:24:34;;;;;;;;;;;;;;;10.86;54.19;99910.00;3744196;31;96484;-81
2020/12/06 02:29:28;;;;;;;;;;;;;;;10.57;55.09;99903.47;3768349;31;97514;-82
2020/12/06 02:31:53;;;;;;;;;;;;;;;10.59;54.99;99906.91;3754893;31;99503;-81
2020/12/06 02:34:20;;;;;;;;;;;;;;;10.75;54.78;99917.59;3747276;31;97989;-83
2020/12/06 02:36:46;;;;;;;;;;;;;;;10.37;55.55;99916.81;3694905;31;96804;-83
2020/12/06 02:39:13;;;;;;;;;;;;;;;10.41;55.83;99910.44;3784029;31;97185;-83
2020/12/06 02:41:41;;;;;;;;;;;;;;;10.59;55.25;99911.34;3763304;31;100230;-82
2020/12/06 02:44:12;;;;;;;;;;;;;;;10.31;55.77;99917.09;3742704;31;96942;-81
2020/12/06 02:46:39;;;;;;;;;;;;;;;10.40;55.45;99908.72;3804069;31;96619;-83
2020/12/06 02:49:08;;;;;;;;;;;;;;;10.42;55.41;99912.16;3851323;31;96870;-82
2020/12/06 02:51:34;;;;;;;;;;;;;;;10.53;55.35;99909.84;3738392;31;100724;-83
2020/12/06 02:54:00;;;;;;;;;;;;;;;10.34;56.04;99893.19;3744087;31;101358;-84
2020/12/06 02:56:26;;;;;;;;;;;;;;;10.33;55.75;99897.59;3748348;31;96583;-85
2020/12/06 02:58:52;;;;;;;;;;;;;;;10.30;56.17;99891.63;3793223;31;97076;-84
2020/12/06 03:01:18;;;;;;;;;;;;;;;10.64;55.26;99881.13;3882398;31;98807;-84
2020/12/06 03:03:45;;;;;;;;;;;;;;;10.46;55.59;99889.09;3813118;31;99476;-85
2020/12/06 03:06:12;;;;;;;;;;;;;;;10.59;54.96;99884.91;3765848;31;96639;-84
2020/12/06 03:08:38;;;;;;;;;;;;;;;10.47;55.44;99881.09;3708178;31;96756;-82
2020/12/06 03:11:04;;;;;;;;;;;;;;;10.43;55.92;99876.91;3745436;31;97692;-82
2020/12/06 03:13:30;;;;;;;;;;;;;;;10.40;56.03;99879.69;3742175;31;99211;-83
2020/12/06 03:15:57;;;;;;;;;;;;;;;10.24;56.34;99884.00;3747825;31;96475;-83
2020/12/06 03:18:23;;;;;;;;;;;;;;;10.29;56.17;99887.28;3842951;31;96853;-84
2020/12/06 03:20:49;;;;;;;;;;;;;;;10.23;56.43;99892.84;3965787;31;101123;-83
2020/12/06 03:23:14;;;;;;;;;;;;;;;10.33;56.04;99880.91;3821253;31;97705;-83
2020/12/06 03:25:40;;;;;;;;;;;;;;;10.51;55.59;99872.09;3805483;31;96624;-82
2020/12/06 03:28:06;;;;;;;;;;;;;;;10.43;55.72;99868.97;3786421;31;96638;-83
2020/12/06 03:30:32;;;;;;;;;;;;;;;10.43;55.85;99862.84;3791365;31;97874;-86
2020/12/06 03:32:59;;;;;;;;;;;;;;;10.35;56.30;99865.84;3719826;31;98120;-83
2020/12/06 03:35:25;;;;;;;;;;;;;;;10.64;55.49;99875.84;3748464;31;96581;-84
2020/12/06 03:37:51;;;;;;;;;;;;;;;10.57;55.52;99877.06;3792438;31;96697;-83
2020/12/06 03:40:17;;;;;;;;;;;;;;;10.54;55.83;99876.38;3778912;31;100317;-84
2020/12/06 03:42:43;;;;;;;;;;;;;;;10.67;55.36;99869.56;3957943;31;100685;-84
2020/12/06 03:45:09;;;;;;;;;;;;;;;10.82;54.80;99876.72;3826917;31;96506;-84
2020/12/06 03:47:35;;;;;;;;;;;;;;;10.69;55.12;99881.78;3848917;31;96435;-85
2020/12/06 03:50:01;;;;;;;;;;;;;;;10.73;55.17;99878.03;3841807;31;99090;-85
2020/12/06 03:52:27;;;;;;;;;;;;;;;10.63;55.53;99874.13;3728062;31;99897;-83
2020/12/06 03:54:53;;;;;;;;;;;;;;;10.60;55.94;99890.13;3809396;31;96779;-82
2020/12/06 03:57:19;;;;;;;;;;;;;;;10.73;55.18;99893.88;3773321;31;96791;-83
2020/12/06 03:59:44;;;;;;;;;;;;;;;10.70;55.70;99888.75;3793988;31;99175;-82
2020/12/06 04:02:10;;;;;;;;;;;;;;;10.90;55.19;99889.53;3741301;31;101339;-83
2020/12/06 04:04:39;;;;;;;;;;;;;;;10.87;55.05;99897.63;3870870;31;96665;-84
2020/12/06 04:07:06;;;;;;;;;;;;;;;10.91;54.79;99892.09;3811553;31;97270;-82
2020/12/06 04:09:32;;;;;;;;;;;;;;;10.68;55.71;99884.47;3825410;31;99856;-87
2020/12/06 04:11:58;;;;;;;;;;;;;;;10.94;55.05;99880.53;3703782;31;101597;-82
2020/12/06 04:14:24;;;;;;;;;;;;;;;10.95;54.89;99885.75;3740127;31;96438;-84
2020/12/06 04:16:50;;;;;;;;;;;;;;;10.95;54.85;99895.47;3772689;31;96902;-83
2020/12/06 04:19:15;;;;;;;;;;;;;;;11.03;54.81;99893.25;3770801;31;100763;-82
2020/12/06 04:21:41;;;;;;;;;;;;;;;10.76;55.74;99883.16;3720918;31;101100;-83
2020/12/06 04:24:08;;;;;;;;;;;;;;;10.73;55.74;99893.88;3730228;31;96388;-83
2020/12/06 04:26:34;;;;;;;;;;;;;;;10.70;55.69;99887.88;3843723;31;97442;-83
2020/12/06 04:29:00;;;;;;;;;;;;;;;10.61;56.30;99893.63;3874380;31;98728;-83
2020/12/06 04:31:26;;;;;;;;;;;;;;;10.59;56.27;99885.78;3765932;31;101129;-82
2020/12/06 04:33:52;;;;;;;;;;;;;;;10.72;55.90;99886.03;3783582;31;98456;-83
2020/12/06 04:36:18;;;;;;;;;;;;;;;10.64;56.14;99880.25;3763705;31;97006;-82
2020/12/06 04:38:44;;;;;;;;;;;;;;;10.68;55.95;99873.91;3778069;31;99496;-82
2020/12/06 04:41:11;;;;;;;;;;;;;;;10.57;56.30;99874.41;3740211;31;99310;-84
2020/12/06 04:43:39;;;;;;;;;;;;;;;10.78;55.85;99875.16;3726885;31;96468;-81
2020/12/06 04:46:05;;;;;;;;;;;;;;;10.31;57.66;99865.13;3868048;31;96569;-82
2020/12/06 04:48:38;;;;;;;;;;;;;;;10.67;56.17;99861.63;3793111;31;97809;-84
2020/12/06 04:51:04;;;;;;;;;;;;;;;10.69;56.05;99868.56;3907393;31;99647;-84
2020/12/06 04:53:36;;;;;;;;;;;;;;;10.42;56.97;99862.00;3820364;31;96618;-84
2020/12/06 04:56:04;;;;;;;;;;;;;;;9.96;58.31;99863.28;3747492;31;96495;-84
2020/12/06 04:58:31;;;;;;;;;;;;;;;10.41;57.51;99860.28;3893925;31;99207;-85
2020/12/06 05:00:56;;;;;;;;;;;;;;;10.55;56.89;99856.97;3753941;31;98353;-84
2020/12/06 05:03:23;;;;;;;;;;;;;;;10.56;56.70;99858.66;3728821;31;96597;-84
2020/12/06 05:05:49;;;;;;;;;;;;;;;10.57;56.70;99861.22;3749767;31;96485;-84
2020/12/06 05:08:15;;;;;;;;;;;;;;;10.60;56.83;99854.94;3742387;31;100661;-85
2020/12/06 05:10:42;;;;;;;;;;;;;;;10.67;56.40;99862.47;3739383;31;101453;-84
2020/12/06 05:13:08;;;;;;;;;;;;;;;10.70;56.35;99859.66;3924656;31;96581;-84
2020/12/06 05:15:35;;;;;;;;;;;;;;;10.77;55.99;99858.44;3853496;31;96634;-84
2020/12/06 05:18:01;;;;;;;;;;;;;;;10.85;55.90;99851.91;3842896;31;100594;-84
2020/12/06 05:20:27;;;;;;;;;;;;;;;10.82;55.95;99854.72;3740931;31;101081;-82
2020/12/06 05:22:53;;;;;;;;;;;;;;;10.67;56.49;99857.19;3731530;31;96666;-83
2020/12/06 05:25:19;;;;;;;;;;;;;;;10.77;56.33;99857.56;3784947;31;98189;-84
2020/12/06 05:27:45;;;;;;;;;;;;;;;10.72;56.40;99860.47;3745978;31;97766;-84
2020/12/06 05:30:12;;;;;;;;;;;;;;;10.73;56.45;99862.19;3729757;31;98838;-82
2020/12/06 05:32:39;;;;;;;;;;;;;;;10.79;56.42;99867.16;3758198;31;96509;-83
2020/12/06 05:35:06;;;;;;;;;;;;;;;10.88;56.07;99863.19;3811439;31;96706;-83
2020/12/06 05:37:34;;;;;;;;;;;;;;;10.60;56.78;99861.06;3731331;31;97937;-85
2020/12/06 05:40:02;;;;;;;;;;;;;;;10.44;57.33;99857.47;3706546;31;98045;-83
2020/12/06 05:42:27;;;;;;;;;;;;;;;10.70;57.02;99845.59;3760281;31;96614;-83
2020/12/06 05:44:57;;;;;;;;;;;;;;;10.63;57.13;99845.06;3856898;31;96948;-83
2020/12/06 05:47:23;;;;;;;;;;;;;;;10.64;57.26;99852.06;3784373;31;96998;-83
2020/12/06 05:49:49;;;;;;;;;;;;;;;10.73;56.71;99848.97;3735240;31;98477;-84
2020/12/06 05:52:16;;;;;;;;;;;;;;;10.58;57.10;99857.66;3764641;31;96963;-83
2020/12/06 05:54:42;;;;;;;;;;;;;;;10.45;57.64;99872.38;3780249;31;96776;-83
2020/12/06 05:57:08;;;;;;;;;;;;;;;10.55;57.52;99875.44;3769946;31;99891;-83
2020/12/06 05:59:34;;;;;;;;;;;;;;;10.66;57.25;99867.84;3866073;31;101393;-84
2020/12/06 06:02:00;;;;;;;;;;;;;;;10.87;56.28;99868.56;3885291;31;96652;-85
2020/12/06 06:04:27;;;;;;;;;;;;;;;10.98;56.04;99863.56;3793672;31;96686;-84
2020/12/06 06:06:56;;;;;;;;;;;;;;;10.57;57.54;99869.13;3779083;31;98791;-85
2020/12/06 06:09:24;;;;;;;;;;;;;;;10.25;58.83;99870.69;3712503;31;100042;-84
2020/12/06 06:11:55;;;;;;;;;;;;;;;10.63;57.39;99873.28;3834304;31;96503;-83
2020/12/06 06:14:22;;;;;;;;;;;;;;;10.46;57.92;99879.38;3764301;31;96434;-84
2020/12/06 06:16:48;;;;;;;;;;;;;;;10.16;59.08;99867.63;3742161;31;98877;-82
2020/12/06 06:19:15;;;;;;;;;;;;;;;10.67;57.52;99875.69;3895843;31;98228;-86
2020/12/06 06:21:43;;;;;;;;;;;;;;;10.86;56.84;99877.41;3788770;31;96824;-83
2020/12/06 06:24:10;;;;;;;;;;;;;;;10.85;56.52;99883.63;3769634;31;97007;-84
2020/12/06 06:26:39;;;;;;;;;;;;;;;10.90;56.19;99878.97;3773423;31;100666;-85
2020/12/06 06:29:10;;;;;;;;;;;;;;;10.68;57.12;99874.78;3836829;31;99354;-85
2020/12/06 06:31:36;;;;;;;;;;;;;;;10.85;56.54;99873.06;3718151;31;96602;-86
2020/12/06 06:34:05;;;;;;;;;;;;;;;10.81;56.61;99874.16;3768493;31;96944;-82
2020/12/06 06:36:32;;;;;;;;;;;;;;;10.69;57.14;99884.41;3790434;31;100012;-84
2020/12/06 06:38:57;;;;;;;;;;;;;;;10.66;57.37;99884.53;3711687;31;97824;-83
2020/12/06 06:41:25;;;;;;;;;;;;;;;10.59;57.50;99882.28;3758229;31;97640;-82
2020/12/06 06:46:19;;;;;;;;;;;;;;;10.78;57.19;99873.38;3947887;31;98242;-84
2020/12/06 06:48:45;;;;;;;;;;;;;;;10.99;56.71;99871.44;3792846;31;101209;-82
2020/12/06 06:51:17;;;;;;;;;;;;;;;11.04;56.15;99872.03;3773438;31;96875;-82
2020/12/06 06:53:43;;;;;;;;;;;;;;;10.92;56.58;99870.03;3737194;31;96660;-83
2020/12/06 06:56:10;;;;;;;;;;;;;;;11.15;55.99;99860.94;3928574;31;101349;-82
2020/12/06 06:58:37;;;;;;;;;;;;;;;10.58;57.82;99841.78;3778696;31;101022;-83
2020/12/06 07:01:16;;;;;;;;;;;;;;;10.83;57.26;99844.06;3777651;31;96806;-82
2020/12/06 07:03:42;;;;;;;;;;;;;;;10.74;57.63;99848.03;3851521;31;96697;-82
2020/12/06 07:06:08;;;;;;;;;;;;;;;10.23;59.22;99847.97;3897754;31;98805;-83
2020/12/06 07:08:34;;;;;;;;;;;;;;;10.68;58.33;99842.19;3840306;31;100141;-82
2020/12/06 07:11:03;;;;;;;;;;;;;;;10.66;57.89;99844.06;3833321;31;96417;-83
2020/12/06 07:13:29;;;;;;;;;;;;;;;10.50;58.84;99841.31;3800380;31;96427;-82
2020/12/06 07:15:56;;;;;;;;;;;;;;;10.85;57.84;99846.63;3728926;31;100057;-82
2020/12/06 07:18:22;;;;;;;;;;;;;;;10.76;58.15;99850.59;3720842;31;100039;-84
2020/12/06 07:20:47;;;;;;;;;;;;;;;11.17;56.85;99854.63;3686850;31;96509;-83
2020/12/06 07:23:13;;;;;;;;;;;;;;;10.99;57.43;99847.63;3882510;31;98480;-83
2020/12/06 07:25:39;;;;;;;;;;;;;;;10.77;57.90;99847.00;3826854;31;98089;-85
2020/12/06 07:28:05;;;;;;;;;;;;;;;11.17;57.25;99851.13;3815437;31;101268;-82
2020/12/06 07:30:31;;;;;;;;;;;;;;;11.33;56.37;99843.25;3798452;31;96298;-83
2020/12/06 07:32:58;;;;;;;;;;;;;;;11.42;56.23;99846.25;3762298;31;97141;-84
2020/12/06 07:35:24;;;;;;;;;;;;;;;11.13;56.95;99846.94;3753484;31;97130;-85
2020/12/06 07:40:19;;;;;;;;;;;;;;;11.40;56.41;99840.19;3895666;31;97557;-81
2020/12/06 07:42:45;;;;;;;;;;;;;;;11.33;56.44;99848.53;3847143;31;96755;-84
2020/12/06 07:45:11;;;;;;;;;;;;;;;11.41;56.32;99855.13;3821309;31;99200;-85
2020/12/06 07:47:37;;;;;;;;;;;;;;;11.38;56.50;99850.00;3757345;26;99379;-81
2020/12/06 07:50:04;;;;;;;;;;;;;;;11.34;56.75;99864.34;3715333;31;96720;-83
2020/12/06 07:52:32;;;;;;;;;;;;;;;11.23;57.03;99865.81;3678532;32;97737;-83
2020/12/06 07:54:59;;;;;;;;;;;;;;;11.42;56.62;99863.94;3677185;32;99909;-84
2020/12/06 07:57:28;;;;;;;;;;;;;;;11.48;56.56;99855.66;3664691;32;102206;-83
2020/12/06 07:59:55;;;;;;;;;;;;;;;11.65;56.01;99862.69;3619353;32;99193;-84
2020/12/06 08:02:22;;;;;;;;;;;;;;;11.36;56.94;99870.38;3707332;32;97917;-82
2020/12/06 08:04:50;;;;;;;;;;;;;;;11.52;56.49;99870.44;3665839;32;98362;-82
2020/12/06 08:07:27;;;;;;;;;;;;;;;11.59;56.33;99872.69;3777502;32;98593;-83
2020/12/06 08:09:53;;;;;;;;;;;;;;;11.78;55.73;99863.78;3720501;32;97001;-83
2020/12/06 08:12:19;;;;;;;;;;;;;;;11.64;56.31;99863.63;3711089;32;97490;-84
2020/12/06 08:14:45;;;;;;;;;;;;;;;11.62;56.42;99860.22;3740088;32;100841;-83
2020/12/06 08:17:11;;;;;;;;;;;;;;;11.67;56.38;99855.53;3665456;32;98052;-82
2020/12/06 08:19:41;;;;;;;;;;;;;;;11.66;56.27;99851.19;3694221;32;97313;-83
2020/12/06 08:22:07;;;;;;;;;;;;;;;11.82;55.90;99854.72;3676143;32;97933;-82
2020/12/06 08:24:34;;;;;;;;;;;;;;;11.89;55.69;99853.44;3674446;32;98226;-83
2020/12/06 08:27:00;;;;;;;;;;;;;;;11.88;55.66;99865.81;3692527;32;100172;-81
2020/12/06 08:29:39;;;;;;;;;;;;;;;11.77;56.06;99854.97;3664419;32;97793;-82
2020/12/06 08:32:06;;;;;;;;;;;;;;;11.90;55.66;99856.00;3815991;32;97041;-83
2020/12/06 08:34:32;;;;;;;;;;;;;;;11.76;55.89;99855.06;3651281;32;100504;-81
2020/12/06 08:37:12;;;;;;;;;;;;;;;12.05;55.35;99848.16;3715001;32;99656;-85
2020/12/06 08:39:39;;;;;;;;;;;;;;;12.08;55.17;99851.47;3663544;32;96848;-83
2020/12/06 08:42:12;;;;;;;;;;;;;;;12.03;55.35;99847.38;3733011;32;96936;-81
2020/12/06 08:44:49;;;;;;;;;;;;;;;12.10;54.91;99843.47;3669803;32;98146;-82
2020/12/06 08:47:15;;;;;;;;;;;;;;;12.25;54.82;99848.78;3713786;32;99108;-82
2020/12/06 08:49:41;;;;;;;;;;;;;;;12.11;55.04;99848.69;3745446;32;97843;-84
2020/12/06 08:52:19;;;;;;;;;;;;;;;12.11;55.20;99846.03;3705023;32;97118;-85
2020/12/06 08:57:14;;;;;;;;;;;;;;;12.14;55.13;99839.72;3750090;31;97567;-84
2020/12/06 08:59:41;;;;;;;;;;;;;;;11.88;55.90;99855.22;3756376;31;97356;-82
2020/12/06 09:02:08;;;;;;;;;;;;;;;12.26;55.09;99850.47;3691937;31;97078;-84
2020/12/06 09:04:34;;;;;;;;;;;;;;;12.11;55.45;99834.59;3800050;31;98545;-84
2020/12/06 09:07:00;;;;;;;;;;;;;;;12.15;55.19;99831.66;3961863;26;101809;-83
2020/12/06 09:09:28;;;;;;;;;;;;;;;12.02;55.66;99825.34;3712704;31;97008;-82
2020/12/06 09:11:54;;;;;;;;;;;;;;;11.85;56.00;99821.00;3696730;31;96964;-84
2020/12/06 09:14:21;;;;;;;;;;;;;;;12.01;55.70;99817.53;3710816;31;98498;-82
2020/12/06 09:16:47;;;;;;;;;;;;;;;11.82;56.42;99820.31;3721467;31;101840;-82
2020/12/06 09:19:13;;;;;;;;;;;;;;;11.73;56.70;99815.50;3809486;31;96832;-84
2020/12/06 09:21:39;;;;;;;;;;;;;;;11.82;56.54;99820.31;3727706;31;96872;-82
2020/12/06 09:24:05;;;;;;;;;;;;;;;12.14;55.65;99811.41;3738249;31;97550;-84
2020/12/06 09:26:31;;;;;;;;;;;;;;;12.36;54.88;99809.25;3684849;31;98004;-84
2020/12/06 09:28:57;;;;;;;;;;;;;;;12.58;54.00;99814.19;3748016;31;97930;-83
2020/12/06 09:39:00;;;;;;;;;;;;;;;12.81;53.40;99783.66;3797321;31;96893;-85
2020/12/06 09:43:56;;;;;;;;;;;;;;;13.00;52.99;99778.94;3701529;31;98754;-83
2020/12/06 09:46:21;;;;;;;;;;;;;;;13.12;52.72;99791.53;3721093;31;100582;-82
2020/12/06 09:48:48;;;;;;;;;;;;;;;13.10;52.74;99787.22;3674072;31;97780;-83
2020/12/06 09:51:14;;;;;;;;;;;;;;;13.40;51.94;99787.16;3760168;26;99968;-83
2020/12/06 09:53:40;;;;;;;;;;;;;;;13.11;52.71;99775.66;3625470;31;100537;-81
2020/12/06 09:56:06;;;;;;;;;;;;;;;13.45;51.94;99769.16;3681485;31;99186;-80
2020/12/06 09:58:33;;;;;;;;;;;;;;;13.60;51.40;99768.19;3670318;31;98094;-81
2020/12/06 10:00:58;;;;;;;;;;;;;;;13.44;51.82;99773.63;3666678;31;98558;-82
2020/12/06 10:03:24;;;;;;;;;;;;;;;13.30;52.10;99791.34;3672297;31;100950;-83
2020/12/06 10:05:50;;;;;;;;;;;;;;;13.26;52.52;99792.47;3683786;31;100615;-81
2020/12/06 10:08:18;;;;;;;;;;;;;;;13.30;52.50;99784.22;3711806;31;96813;-84
2020/12/06 10:10:46;;;;;;;;;;;;;;;13.53;51.81;99778.31;3667620;31;97696;-81
2020/12/06 10:13:12;;;;;;;;;;;;;;;13.67;51.41;99782.75;3721435;31;96956;-83
2020/12/06 10:15:39;;;;;;;;;;;;;;;13.94;50.87;99775.69;3723895;31;99793;-83
2020/12/06 10:20:39;;;;;;;;;;;;;;;14.07;50.50;99782.88;3729011;31;97201;-83
2020/12/06 10:23:11;;;;;;;;;;;;;;;14.20;50.01;99775.81;3749000;31;101026;-84
2020/12/06 10:33:14;;;;;;;;;;;;;;;14.20;50.48;99778.47;4026098;26;98968;31
2020/12/06 10:38:09;;;;;;;;;;;;;;;14.13;50.38;99785.13;3787269;31;96922;-83
2020/12/06 10:40:35;;;;;;;;;;;;;;;14.13;50.43;99783.31;3847504;31;96824;-83
2020/12/06 10:43:03;;;;;;;;;;;;;;;14.49;49.91;99784.56;3791331;31;99724;-83
2020/12/06 10:45:34;;;;;;;;;;;;;;;14.53;49.59;99778.06;3713334;31;99467;-84
2020/12/06 10:48:01;;;;;;;;;;;;;;;14.59;49.47;99781.16;3846285;31;97490;-81
2020/12/06 11:07:54;;;;;;;;;;;;;;;14.20;50.74;99779.31;3709194;31;96719;-80
2020/12/06 11:10:20;;;;;;;;;;;;;;;14.53;50.13;99770.94;3693056;31;98362;-84
2020/12/06 11:12:46;;;;;;;;;;;;;;;14.55;49.88;99770.84;3729958;31;97195;-82
2020/12/06 11:15:12;;;;;;;;;;;;;;;14.49;50.13;99774.78;3725945;31;101278;-81
2020/12/06 11:17:38;;;;;;;;;;;;;;;14.72;49.43;99774.06;3767519;31;98613;-82
2020/12/06 11:20:10;;;;;;;;;;;;;;;14.85;49.01;99773.22;3701799;31;98129;-82
2020/12/06 11:22:38;;;;;;;;;;;;;;;14.39;50.19;99763.03;3818164;31;98514;-83
2020/12/06 11:25:08;;;;;;;;;;;;;;;14.93;49.01;99760.25;3709149;31;99636;-84
2020/12/06 11:35:22;;;;;;;;;;;;;;;14.96;48.81;99746.75;3738436;31;99954;-83
2020/12/06 11:37:49;;;;;;;;;;;;;;;14.88;48.83;99754.41;3753980;31;96836;-84
2020/12/06 11:40:16;;;;;;;;;;;;;;;14.94;48.96;99749.53;3790719;31;96775;-83
2020/12/06 11:45:40;;;;;;;;;;;;;;;15.03;48.58;99748.88;4047139;26;99802;31
2020/12/06 11:48:32;;;;;;;;;;;;;;;15.06;48.83;99748.66;3718685;31;97181;-82
2020/12/06 11:50:59;;;;;;;;;;;;;;;15.25;48.37;99753.56;3775599;32;98635;-84
2020/12/06 11:53:24;;;;;;;;;;;;;;;15.13;48.58;99743.78;3657723;32;98056;-81
2020/12/06 11:55:51;;;;;;;;;;;;;;;14.98;48.89;99740.34;3664550;32;100941;-82
2020/12/06 11:58:17;;;;;;;;;;;;;;;15.05;48.81;99730.16;3679908;32;98561;-82
2020/12/06 12:00:43;;;;;;;;;;;;;;;15.14;48.57;99738.34;3690359;32;97075;-82
2020/12/06 12:03:09;;;;;;;;;;;;;;;14.84;49.38;99734.28;3735885;32;99193;-83
2020/12/06 12:05:35;;;;;;;;;;;;;;;15.05;49.01;99735.47;3691499;32;100560;-83
2020/12/06 12:08:01;;;;;;;;;;;;;;;14.87;49.28;99744.72;3685085;32;98168;-85
2020/12/06 12:10:27;;;;;;;;;;;;;;;14.90;49.16;99741.88;3681711;32;97200;-82
2020/12/06 12:12:54;;;;;;;;;;;;;;;15.03;48.95;99748.03;3733758;32;100957;-82
2020/12/06 12:15:19;;;;;;;;;;;;;;;15.20;48.49;99729.06;3668497;32;98703;-84
2020/12/06 12:17:46;;;;;;;;;;;;;;;15.04;48.95;99729.28;3630356;32;96842;-84
2020/12/06 12:20:12;;;;;;;;;;;;;;;15.46;47.89;99728.06;3710844;32;96977;-81
2020/12/06 12:22:50;;;;;;;;;;;;;;;15.47;47.66;99719.13;3790504;32;100095;-79
2020/12/06 12:25:16;;;;;;;;;;;;;;;14.86;49.34;99713.75;3754333;32;97948;-84
2020/12/06 12:27:42;;;;;;;;;;;;;;;14.77;49.39;99709.09;3697827;32;98250;-80
2020/12/06 12:30:10;;;;;;;;;;;;;;;15.09;48.75;99703.25;3886277;32;97067;-80
2020/12/06 12:32:36;;;;;;;;;;;;;;;15.22;48.57;99705.88;3687318;32;99510;-84
2020/12/06 12:35:02;;;;;;;;;;;;;;;15.19;48.29;99692.78;3745910;32;100221;-86
2020/12/06 12:37:28;;;;;;;;;;;;;;;15.53;47.61;99692.09;3694582;32;97869;-83
2020/12/06 12:52:18;;;;;;;;;;;;;;;15.04;49.27;99675.22;3876870;31;97413;-81
2020/12/06 12:57:25;;;;;;;;;;;;;;;15.63;47.60;99659.47;3684748;31;97282;-83
2020/12/06 12:59:51;;;;;;;;;;;;;;;15.80;47.35;99670.59;3715896;31;96986;-84
2020/12/06 13:02:20;;;;;;;;;;;;;;;15.89;47.01;99671.72;3714368;31;102845;-83
2020/12/06 13:04:55;;;;;;;;;;;;;;;15.97;46.55;99666.66;3712898;31;101165;-83
2020/12/06 13:07:23;;;;;;;;;;;;;;;16.17;46.26;99660.69;3697443;31;97653;-84
2020/12/06 13:09:50;;;;;;;;;;;;;;;16.04;46.56;99667.91;3852065;31;96850;-82
2020/12/06 13:12:15;;;;;;;;;;;;;;;16.02;46.58;99672.50;3799575;31;98228;-81
2020/12/06 13:14:42;;;;;;;;;;;;;;;15.69;47.52;99667.00;3722363;31;99456;-82
2020/12/06 13:17:08;;;;;;;;;;;;;;;15.67;47.65;99663.63;3784911;31;97087;-85
2020/12/06 13:19:34;;;;;;;;;;;;;;;15.72;47.41;99670.31;3747459;31;97080;-84
2020/12/06 13:22:01;;;;;;;;;;;;;;;15.72;47.59;99669.44;3752881;31;99029;-80
2020/12/06 13:24:29;;;;;;;;;;;;;;;15.94;47.12;99670.44;3701589;31;99692;-81
2020/12/06 13:26:58;;;;;;;;;;;;;;;15.77;47.26;99675.28;3753357;31;98125;-85
2020/12/06 13:29:25;;;;;;;;;;;;;;;15.50;48.00;99672.78;3735216;31;98422;-81
2020/12/06 13:31:59;;;;;;;;;;;;;;;15.84;47.45;99671.22;3755717;31;99391;-84
2020/12/06 13:34:25;;;;;;;;;;;;;;;15.66;47.64;99672.56;3761357;31;97061;-77
2020/12/06 13:36:51;;;;;;;;;;;;;;;15.53;47.93;99659.31;3743283;31;96737;-82
2020/12/06 13:39:18;;;;;;;;;;;;;;;15.72;47.58;99661.47;3754028;31;96874;-82
2020/12/06 13:41:45;;;;;;;;;;;;;;;15.76;47.42;99657.59;3871595;26;97192;-83
2020/12/06 13:44:12;;;;;;;;;;;;;;;15.91;47.12;99653.81;3704864;31;100944;-82
2020/12/06 13:46:38;;;;;;;;;;;;;;;15.73;47.69;99660.50;3702003;31;97796;-82
2020/12/06 13:49:07;;;;;;;;;;;;;;;15.72;47.73;99656.13;3835394;31;98161;-83
2020/12/06 14:00:01;;;;;;;;;;;;;;;15.25;48.87;99673.72;4074137;26;100063;31
2020/12/06 14:02:30;;;;;;;;;;;;;;;15.07;49.45;99683.00;3716435;32;99059;-81
2020/12/06 14:07:40;;;;;;;;;;;;;;;15.04;49.42;99678.75;3694567;32;96727;-82
2020/12/06 14:10:06;;;;;;;;;;;;;;;14.83;50.20;99684.75;3781795;32;96867;-80
2020/12/06 14:12:32;;;;;;;;;;;;;;;14.96;50.04;99682.91;3795547;32;97813;-81
2020/12/06 14:15:00;;;;;;;;;;;;;;;14.84;50.47;99681.09;3779553;32;99636;-82
2020/12/06 14:19:58;;;;;;;;;;;;;;;15.25;49.13;99662.22;3797077;31;97892;-80
2020/12/06 14:22:31;;;;;;;;;;;;;;;14.97;49.86;99663.31;3798915;32;98284;-83
2020/12/06 14:25:13;;;;;;;;;;;;;;;15.05;49.86;99666.28;3722142;32;96892;-79